sensor_id;sensor_type;location;lat;lon;timestamp;pressure;altitude;pressure_sealevel;temperature;humidity
19795;BME280;10057;59.402;17.866;2022-09-27T00:02:24;99874.19;;;10.93;84.21
19795;BME280;10057;59.402;17.866;2022-09-27T00:04:51;99878.66;;;10.93;84.19
19795;BME280;10057;59.402;17.866;2022-09-27T00:07:18;99872.50;;;10.92;84.37
19795;BME280;10057;59.402;17.866;2022-09-27T00:09:44;99873.28;;;10.94;84.26
19795;BME280;10057;59.402;17.866;2022-09-27T00:12:11;99868.03;;;10.93;84.30
19795;BME280;10057;59.402;17.866;2022-09-27T00:14:38;99858.28;;;10.93;84.40
19795;BME280;10057;59.402;17.866;2022-09-27T00:17:04;99866.22;;;10.93;84.59
19795;BME280;10057;59.402;17.866;2022-09-27T00:19:31;99872.22;;;10.97;84.58
19795;BME280;10057;59.402;17.866;2022-09-27T00:21:58;99867.72;;;10.99;84.64
19795;BME280;10057;59.402;17.866;2022-09-27T00:24:26;99862.25;;;11.02;84.50
19795;BME280;10057;59.402;17.866;2022-09-27T00:26:53;99874.41;;;11.06;84.64
19795;BME280;10057;59.402;17.866;2022-09-27T00:29:20;99873.41;;;11.08;84.69
19795;BME280;10057;59.402;17.866;2022-09-27T00:31:47;99869.78;;;11.09;84.50
19795;BME280;10057;59.402;17.866;2022-09-27T00:34:20;99874.09;;;11.12;84.33
19795;BME280;10057;59.402;17.866;2022-09-27T00:36:47;99874.78;;;11.15;84.41
19795;BME280;10057;59.402;17.866;2022-09-27T00:39:15;99866.72;;;11.17;84.38
19795;BME280;10057;59.402;17.866;2022-09-27T00:41:42;99881.66;;;11.20;84.68
19795;BME280;10057;59.402;17.866;2022-09-27T00:46:59;99880.47;;;11.25;84.38
19795;BME280;10057;59.402;17.866;2022-09-27T00:49:48;99879.53;;;11.26;84.28
19795;BME280;10057;59.402;17.866;2022-09-27T00:52:21;99883.81;;;11.29;84.22
19795;BME280;10057;59.402;17.866;2022-09-27T00:54:52;99885.63;;;11.28;84.35
19795;BME280;10057;59.402;17.866;2022-09-27T00:57:21;99887.50;;;11.26;84.19
19795;BME280;10057;59.402;17.866;2022-09-27T00:59:51;99891.84;;;11.27;84.52
19795;BME280;10057;59.402;17.866;2022-09-27T01:02:20;99895.44;;;11.26;84.40
19795;BME280;10057;59.402;17.866;2022-09-27T01:04:47;99895.44;;;11.26;84.26
19795;BME280;10057;59.402;17.866;2022-09-27T01:07:15;99893.75;;;11.25;84.39
19795;BME280;10057;59.402;17.866;2022-09-27T01:09:42;99901.72;;;11.25;84.16
19795;BME280;10057;59.402;17.866;2022-09-27T01:12:19;99909.69;;;11.25;83.96
19795;BME280;10057;59.402;17.866;2022-09-27T01:24:03;99895.22;;;11.13;83.55
19795;BME280;10057;59.402;17.866;2022-09-27T01:26:45;99897.03;;;11.13;83.69
19795;BME280;10057;59.402;17.866;2022-09-27T01:35:35;99898.91;;;11.11;83.41
19795;BME280;10057;59.402;17.866;2022-09-27T01:38:16;99889.31;;;11.08;83.36
19795;BME280;10057;59.402;17.866;2022-09-27T01:43:47;99892.19;;;11.04;83.29
19795;BME280;10057;59.402;17.866;2022-09-27T01:46:32;99892.28;;;11.02;83.43
19795;BME280;10057;59.402;17.866;2022-09-27T01:49:07;99894.09;;;11.02;83.30
19795;BME280;10057;59.402;17.866;2022-09-27T01:51:44;99896.81;;;11.00;83.55
19795;BME280;10057;59.402;17.866;2022-09-27T01:54:18;99897.66;;;11.01;83.59
19795;BME280;10057;59.402;17.866;2022-09-27T01:56:50;99898.56;;;11.01;83.51
19795;BME280;10057;59.402;17.866;2022-09-27T01:59:29;99906.50;;;11.01;83.63
19795;BME280;10057;59.402;17.866;2022-09-27T02:02:02;99911.72;;;11.03;83.46
19795;BME280;10057;59.402;17.866;2022-09-27T02:04:32;99910.88;;;11.02;83.93
19795;BME280;10057;59.402;17.866;2022-09-27T02:07:09;99901.22;;;11.01;83.64
19795;BME280;10057;59.402;17.866;2022-09-27T02:09:49;99912.69;;;11.02;83.90
19795;BME280;10057;59.402;17.866;2022-09-27T02:12:25;99912.69;;;11.02;83.71
19795;BME280;10057;59.402;17.866;2022-09-27T02:15:04;99913.59;;;11.01;83.78
19795;BME280;10057;59.402;17.866;2022-09-27T02:17:54;99916.44;;;10.98;83.63
19795;BME280;10057;59.402;17.866;2022-09-27T02:20:36;99908.47;;;10.98;83.80
19795;BME280;10057;59.402;17.866;2022-09-27T02:25:55;99919.09;;;10.98;83.71
19795;BME280;10057;59.402;17.866;2022-09-27T02:28:30;99913.94;;;10.95;83.96
19795;BME280;10057;59.402;17.866;2022-09-27T02:30:59;99918.38;;;10.94;83.91
19795;BME280;10057;59.402;17.866;2022-09-27T02:33:35;99918.44;;;10.93;83.90
19795;BME280;10057;59.402;17.866;2022-09-27T02:36:03;99928.28;;;10.90;83.51
19795;BME280;10057;59.402;17.866;2022-09-27T02:38:30;99915.25;;;10.86;84.10
19795;BME280;10057;59.402;17.866;2022-09-27T02:40:57;99924.22;;;10.83;84.17
19795;BME280;10057;59.402;17.866;2022-09-27T02:43:27;99924.31;;;10.82;84.03
19795;BME280;10057;59.402;17.866;2022-09-27T03:00:02;99923.84;;;10.74;84.13
19795;BME280;10057;59.402;17.866;2022-09-27T03:05:12;99923.91;;;10.72;84.00
19795;BME280;10057;59.402;17.866;2022-09-27T03:07:41;99920.56;;;10.68;84.15
19795;BME280;10057;59.402;17.866;2022-09-27T03:10:16;99922.34;;;10.68;83.90
19795;BME280;10057;59.402;17.866;2022-09-27T03:12:43;99923.31;;;10.67;84.15
19795;BME280;10057;59.402;17.866;2022-09-27T03:15:10;99922.50;;;10.65;84.26
19795;BME280;10057;59.402;17.866;2022-09-27T03:17:36;99928.66;;;10.65;84.06
19795;BME280;10057;59.402;17.866;2022-09-27T03:20:03;99922.50;;;10.65;84.39
19795;BME280;10057;59.402;17.866;2022-09-27T03:22:30;99928.66;;;10.65;84.24
19795;BME280;10057;59.402;17.866;2022-09-27T03:24:57;99924.31;;;10.64;84.10
19795;BME280;10057;59.402;17.866;2022-09-27T03:27:24;99918.06;;;10.65;84.77
19795;BME280;10057;59.402;17.866;2022-09-27T03:29:51;99923.16;;;10.70;84.40
19795;BME280;10057;59.402;17.866;2022-09-27T03:32:17;99919.47;;;10.73;84.31
19795;BME280;10057;59.402;17.866;2022-09-27T03:34:44;99919.41;;;10.74;84.79
19795;BME280;10057;59.402;17.866;2022-09-27T03:37:11;99927.22;;;10.77;85.00
19795;BME280;10057;59.402;17.866;2022-09-27T03:39:37;99927.06;;;10.80;84.42
19795;BME280;10057;59.402;17.866;2022-09-27T03:42:05;99923.38;;;10.83;84.49
19795;BME280;10057;59.402;17.866;2022-09-27T03:44:31;99927.75;;;10.84;84.78
19795;BME280;10057;59.402;17.866;2022-09-27T03:46:58;99928.63;;;10.84;84.56
19795;BME280;10057;59.402;17.866;2022-09-27T03:49:25;99923.16;;;10.87;84.76
19795;BME280;10057;59.402;17.866;2022-09-27T03:51:52;99934.53;;;10.89;84.67
19795;BME280;10057;59.402;17.866;2022-09-27T03:54:18;99919.41;;;10.91;84.49
19795;BME280;10057;59.402;17.866;2022-09-27T03:56:45;99931.72;;;10.93;84.85
19795;BME280;10057;59.402;17.866;2022-09-27T03:59:12;99936.88;;;10.96;84.63
19795;BME280;10057;59.402;17.866;2022-09-27T04:01:39;99932.34;;;10.98;84.57
19795;BME280;10057;59.402;17.866;2022-09-27T04:04:06;99933.13;;;11.00;84.80
19795;BME280;10057;59.402;17.866;2022-09-27T04:06:36;99937.31;;;11.04;85.09
19795;BME280;10057;59.402;17.866;2022-09-27T04:09:03;99932.72;;;11.07;84.58
19795;BME280;10057;59.402;17.866;2022-09-27T04:11:30;99938.72;;;11.11;84.55
19795;BME280;10057;59.402;17.866;2022-09-27T04:13:56;99932.34;;;11.15;84.75
19795;BME280;10057;59.402;17.866;2022-09-27T04:16:24;99932.25;;;11.17;84.67
19795;BME280;10057;59.402;17.866;2022-09-27T04:18:51;99925.91;;;11.19;84.49
19795;BME280;10057;59.402;17.866;2022-09-27T04:21:17;99926.78;;;11.20;84.80
19795;BME280;10057;59.402;17.866;2022-09-27T04:23:45;99934.66;;;11.21;84.77
19795;BME280;10057;59.402;17.866;2022-09-27T04:26:12;99934.66;;;11.21;84.66
19795;BME280;10057;59.402;17.866;2022-09-27T04:28:39;99939.09;;;11.21;84.74
19795;BME280;10057;59.402;17.866;2022-09-27T04:31:06;99931.94;;;11.23;84.83
19795;BME280;10057;59.402;17.866;2022-09-27T04:33:33;99931.94;;;11.23;84.62
19795;BME280;10057;59.402;17.866;2022-09-27T04:35:59;99935.44;;;11.23;84.54
19795;BME280;10057;59.402;17.866;2022-09-27T04:38:44;99938.94;;;11.24;84.60
19795;BME280;10057;59.402;17.866;2022-09-27T04:41:11;99943.50;;;11.22;84.56
19795;BME280;10057;59.402;17.866;2022-09-27T04:43:39;99943.56;;;11.20;84.70
19795;BME280;10057;59.402;17.866;2022-09-27T04:46:05;99940.16;;;11.18;84.68
19795;BME280;10057;59.402;17.866;2022-09-27T04:48:32;99942.94;;;11.15;84.58
19795;BME280;10057;59.402;17.866;2022-09-27T04:51:00;99941.22;;;11.14;84.71
19795;BME280;10057;59.402;17.866;2022-09-27T04:53:28;99942.16;;;11.13;84.63
19795;BME280;10057;59.402;17.866;2022-09-27T04:55:55;99946.69;;;11.11;84.61
19795;BME280;10057;59.402;17.866;2022-09-27T04:58:22;99954.75;;;11.09;84.68
19795;BME280;10057;59.402;17.866;2022-09-27T05:00:50;99955.75;;;11.07;84.72
19795;BME280;10057;59.402;17.866;2022-09-27T05:03:17;99951.38;;;11.06;84.65
19795;BME280;10057;59.402;17.866;2022-09-27T05:05:44;99960.34;;;11.03;84.58
19795;BME280;10057;59.402;17.866;2022-09-27T05:08:11;99961.34;;;11.01;84.55
19795;BME280;10057;59.402;17.866;2022-09-27T05:10:38;99958.72;;;11.01;84.69
19795;BME280;10057;59.402;17.866;2022-09-27T05:13:05;99963.25;;;10.99;84.46
19795;BME280;10057;59.402;17.866;2022-09-27T05:15:35;99972.06;;;10.99;84.66
19795;BME280;10057;59.402;17.866;2022-09-27T05:18:01;99970.38;;;10.98;84.82
19795;BME280;10057;59.402;17.866;2022-09-27T05:20:28;99976.59;;;10.97;84.64
19795;BME280;10057;59.402;17.866;2022-09-27T05:22:55;99964.34;;;10.95;84.91
19795;BME280;10057;59.402;17.866;2022-09-27T05:25:22;99974.03;;;10.96;84.66
19795;BME280;10057;59.402;17.866;2022-09-27T05:27:49;99964.41;;;10.93;84.67
19795;BME280;10057;59.402;17.866;2022-09-27T05:30:16;99965.34;;;10.92;84.72
19795;BME280;10057;59.402;17.866;2022-09-27T05:32:43;99965.41;;;10.90;84.71
19795;BME280;10057;59.402;17.866;2022-09-27T05:35:12;99961.06;;;10.89;84.76
19795;BME280;10057;59.402;17.866;2022-09-27T05:37:38;99966.38;;;10.89;84.97
19795;BME280;10057;59.402;17.866;2022-09-27T05:40:06;99959.25;;;10.90;84.90
19795;BME280;10057;59.402;17.866;2022-09-27T05:42:48;99967.16;;;10.91;84.84
19795;BME280;10057;59.402;17.866;2022-09-27T05:45:16;99963.50;;;10.94;84.64
19795;BME280;10057;59.402;17.866;2022-09-27T05:47:55;99972.31;;;10.95;84.75
19795;BME280;10057;59.402;17.866;2022-09-27T05:50:23;99969.56;;;10.96;84.96
19795;BME280;10057;59.402;17.866;2022-09-27T05:52:50;99965.97;;;10.97;84.96
19795;BME280;10057;59.402;17.866;2022-09-27T05:55:17;99967.72;;;10.98;85.12
19795;BME280;10057;59.402;17.866;2022-09-27T05:57:57;99965.81;;;11.00;84.89
19795;BME280;10057;59.402;17.866;2022-09-27T06:00:26;99959.50;;;11.03;85.01
19795;BME280;10057;59.402;17.866;2022-09-27T06:03:04;99969.09;;;11.05;84.95
19795;BME280;10057;59.402;17.866;2022-09-27T06:05:41;99970.81;;;11.06;85.09
19795;BME280;10057;59.402;17.866;2022-09-27T06:08:17;99976.81;;;11.10;84.89
19795;BME280;10057;59.402;17.866;2022-09-27T06:10:45;99970.50;;;11.12;84.94
19795;BME280;10057;59.402;17.866;2022-09-27T06:13:14;99978.31;;;11.15;84.86
19795;BME280;10057;59.402;17.866;2022-09-27T06:15:43;99969.50;;;11.15;84.82
19795;BME280;10057;59.402;17.866;2022-09-27T06:18:12;99979.00;;;11.19;85.23
19795;BME280;10057;59.402;17.866;2022-09-27T06:20:39;99984.06;;;11.24;85.04
19795;BME280;10057;59.402;17.866;2022-09-27T06:23:10;99975.94;;;11.27;84.99
19795;BME280;10057;59.402;17.866;2022-09-27T06:25:40;99988.22;;;11.29;84.96
19795;BME280;10057;59.402;17.866;2022-09-27T06:28:07;99985.41;;;11.32;85.30
19795;BME280;10057;59.402;17.866;2022-09-27T06:30:38;99989.63;;;11.36;84.99
19795;BME280;10057;59.402;17.866;2022-09-27T06:33:10;99988.59;;;11.39;85.00
19795;BME280;10057;59.402;17.866;2022-09-27T06:35:45;99994.63;;;11.43;85.23
19795;BME280;10057;59.402;17.866;2022-09-27T06:38:16;99996.06;;;11.48;85.32
19795;BME280;10057;59.402;17.866;2022-09-27T06:40:44;99992.41;;;11.51;85.10
19795;BME280;10057;59.402;17.866;2022-09-27T06:43:14;99997.47;;;11.55;85.07
19795;BME280;10057;59.402;17.866;2022-09-27T06:45:42;99996.44;;;11.58;84.89
19795;BME280;10057;59.402;17.866;2022-09-27T06:48:12;100002.38;;;11.63;85.18
19795;BME280;10057;59.402;17.866;2022-09-27T06:50:41;100005.56;;;11.70;85.19
19795;BME280;10057;59.402;17.866;2022-09-27T06:53:11;100002.75;;;11.73;85.20
19795;BME280;10057;59.402;17.866;2022-09-27T06:55:38;100005.00;;;11.80;85.26
19795;BME280;10057;59.402;17.866;2022-09-27T06:58:06;100011.88;;;11.84;85.17
19795;BME280;10057;59.402;17.866;2022-09-27T07:00:52;100013.28;;;11.92;85.21
19795;BME280;10057;59.402;17.866;2022-09-27T07:03:21;100021.88;;;11.97;84.90
19795;BME280;10057;59.402;17.866;2022-09-27T07:06:17;100014.50;;;12.02;84.91
19795;BME280;10057;59.402;17.866;2022-09-27T07:08:52;100015.13;;;12.07;84.55
19795;BME280;10057;59.402;17.866;2022-09-27T07:11:19;100008.69;;;12.11;84.65
19795;BME280;10057;59.402;17.866;2022-09-27T07:13:47;100019.06;;;12.16;84.79
19795;BME280;10057;59.402;17.866;2022-09-27T07:16:14;100021.44;;;12.20;84.87
19795;BME280;10057;59.402;17.866;2022-09-27T07:18:46;100016.91;;;12.22;84.51
19795;BME280;10057;59.402;17.866;2022-09-27T07:21:14;100024.63;;;12.27;84.71
19795;BME280;10057;59.402;17.866;2022-09-27T07:23:44;100014.59;;;12.32;84.79
19795;BME280;10057;59.402;17.866;2022-09-27T07:26:11;100018.91;;;12.35;84.60
19795;BME280;10057;59.402;17.866;2022-09-27T07:28:41;100024.81;;;12.40;84.78
19795;BME280;10057;59.402;17.866;2022-09-27T07:31:08;100019.41;;;12.41;84.69
19795;BME280;10057;59.402;17.866;2022-09-27T07:33:37;100021.81;;;12.46;84.55
19795;BME280;10057;59.402;17.866;2022-09-27T07:36:10;100028.66;;;12.50;84.77
19795;BME280;10057;59.402;17.866;2022-09-27T07:38:37;100039.91;;;12.55;84.80
19795;BME280;10057;59.402;17.866;2022-09-27T07:41:05;100032.53;;;12.60;84.61
19795;BME280;10057;59.402;17.866;2022-09-27T07:43:32;100039.31;;;12.66;84.62
19795;BME280;10057;59.402;17.866;2022-09-27T07:45:59;100042.66;;;12.69;84.35
19795;BME280;10057;59.402;17.866;2022-09-27T07:48:25;100041.53;;;12.73;84.62
19795;BME280;10057;59.402;17.866;2022-09-27T07:50:56;100034.22;;;12.77;84.28
19795;BME280;10057;59.402;17.866;2022-09-27T07:53:25;100038.53;;;12.79;84.24
19795;BME280;10057;59.402;17.866;2022-09-27T07:55:52;100031.22;;;12.83;84.33
19795;BME280;10057;59.402;17.866;2022-09-27T07:58:19;100043.50;;;12.86;84.29
19795;BME280;10057;59.402;17.866;2022-09-27T08:00:47;100033.59;;;12.88;84.35
19795;BME280;10057;59.402;17.866;2022-09-27T08:03:14;100035.25;;;12.90;83.92
19795;BME280;10057;59.402;17.866;2022-09-27T08:05:43;100044.69;;;12.96;84.14
19795;BME280;10057;59.402;17.866;2022-09-27T08:08:10;100052.38;;;13.00;84.27
19795;BME280;10057;59.402;17.866;2022-09-27T08:10:37;100052.22;;;13.03;84.42
19795;BME280;10057;59.402;17.866;2022-09-27T08:13:10;100050.13;;;13.09;83.74
19795;BME280;10057;59.402;17.866;2022-09-27T08:15:37;100060.53;;;13.13;84.04
19795;BME280;10057;59.402;17.866;2022-09-27T08:18:05;100060.25;;;13.18;84.05
19795;BME280;10057;59.402;17.866;2022-09-27T08:20:32;100058.16;;;13.23;83.80
19795;BME280;10057;59.402;17.866;2022-09-27T08:23:01;100061.34;;;13.30;83.64
19795;BME280;10057;59.402;17.866;2022-09-27T08:25:30;100055.78;;;13.34;83.18
19795;BME280;10057;59.402;17.866;2022-09-27T08:27:58;100056.44;;;13.38;83.32
19795;BME280;10057;59.402;17.866;2022-09-27T08:30:30;100047.31;;;13.42;83.24
19795;BME280;10057;59.402;17.866;2022-09-27T08:32:59;100050.75;;;13.44;83.00
19795;BME280;10057;59.402;17.866;2022-09-27T08:35:28;100055.91;;;13.47;82.79
19795;BME280;10057;59.402;17.866;2022-09-27T08:38:00;100046.97;;;13.48;82.68
19795;BME280;10057;59.402;17.866;2022-09-27T08:45:56;100050.00;;;13.56;82.70
19795;BME280;10057;59.402;17.866;2022-09-27T08:48:28;100049.63;;;13.62;82.41
19795;BME280;10057;59.402;17.866;2022-09-27T08:50:56;100046.88;;;13.64;82.46
19795;BME280;10057;59.402;17.866;2022-09-27T08:53:45;100052.88;;;13.67;82.24
19795;BME280;10057;59.402;17.866;2022-09-27T08:56:17;100047.34;;;13.70;82.28
19795;BME280;10057;59.402;17.866;2022-09-27T08:58:52;100054.31;;;13.73;81.96
19795;BME280;10057;59.402;17.866;2022-09-27T09:01:21;100057.66;;;13.77;81.98
19795;BME280;10057;59.402;17.866;2022-09-27T09:03:56;100056.59;;;13.79;82.04
19795;BME280;10057;59.402;17.866;2022-09-27T09:06:48;100055.56;;;13.82;81.93
19795;BME280;10057;59.402;17.866;2022-09-27T09:26:33;100077.28;;;14.04;81.19
19795;BME280;10057;59.402;17.866;2022-09-27T09:31:42;100063.88;;;14.06;80.92
19795;BME280;10057;59.402;17.866;2022-09-27T09:34:38;100072.41;;;14.11;80.82
19795;BME280;10057;59.402;17.866;2022-09-27T09:37:18;100069.56;;;14.14;80.59
19795;BME280;10057;59.402;17.866;2022-09-27T09:39:59;100064.88;;;14.17;80.44
19795;BME280;10057;59.402;17.866;2022-09-27T09:42:38;100057.75;;;14.18;80.46
19795;BME280;10057;59.402;17.866;2022-09-27T09:48:08;100054.34;;;14.16;80.29
19795;BME280;10057;59.402;17.866;2022-09-27T09:50:44;100052.41;;;14.18;80.16
19795;BME280;10057;59.402;17.866;2022-09-27T09:53:37;100058.41;;;14.21;80.16
19795;BME280;10057;59.402;17.866;2022-09-27T09:56:09;100060.81;;;14.26;80.09
19795;BME280;10057;59.402;17.866;2022-09-27T09:58:45;100057.16;;;14.27;79.73
19795;BME280;10057;59.402;17.866;2022-09-27T10:01:23;100063.34;;;14.28;79.57
19795;BME280;10057;59.402;17.866;2022-09-27T10:03:53;100067.97;;;14.26;79.61
19795;BME280;10057;59.402;17.866;2022-09-27T10:06:22;100069.06;;;14.21;79.17
19795;BME280;10057;59.402;17.866;2022-09-27T10:08:53;100073.66;;;14.19;79.42
19795;BME280;10057;59.402;17.866;2022-09-27T10:11:34;100071.00;;;14.19;79.40
19795;BME280;10057;59.402;17.866;2022-09-27T10:14:04;100077.19;;;14.20;79.59
19795;BME280;10057;59.402;17.866;2022-09-27T10:16:38;100068.53;;;14.16;79.36
19795;BME280;10057;59.402;17.866;2022-09-27T10:19:10;100073.09;;;14.14;79.38
19795;BME280;10057;59.402;17.866;2022-09-27T10:21:41;100070.59;;;14.11;79.00
19795;BME280;10057;59.402;17.866;2022-09-27T10:24:10;100074.22;;;14.10;79.12
19795;BME280;10057;59.402;17.866;2022-09-27T10:26:45;100071.94;;;14.04;79.17
19795;BME280;10057;59.402;17.866;2022-09-27T10:29:33;100074.06;;;13.99;79.21
19795;BME280;10057;59.402;17.866;2022-09-27T10:32:04;100075.38;;;13.92;79.08
19795;BME280;10057;59.402;17.866;2022-09-27T10:34:44;100074.97;;;13.84;79.52
19795;BME280;10057;59.402;17.866;2022-09-27T10:39:38;100075.34;;;13.78;80.05
19795;BME280;10057;59.402;17.866;2022-09-27T10:42:35;100069.34;;;13.74;80.21
19795;BME280;10057;59.402;17.866;2022-09-27T10:47:51;100066.97;;;13.69;80.57
19795;BME280;10057;59.402;17.866;2022-09-27T10:50:38;100069.63;;;13.69;80.54
19795;BME280;10057;59.402;17.866;2022-09-27T10:53:25;100066.91;;;13.71;80.71
19795;BME280;10057;59.402;17.866;2022-09-27T10:55:53;100068.50;;;13.73;80.89
19795;BME280;10057;59.402;17.866;2022-09-27T10:58:46;100063.81;;;13.77;80.93
19795;BME280;10057;59.402;17.866;2022-09-27T11:01:12;100063.66;;;13.80;80.90
19795;BME280;10057;59.402;17.866;2022-09-27T11:03:51;100062.78;;;13.80;80.89
19795;BME280;10057;59.402;17.866;2022-09-27T11:08:54;100066.22;;;13.82;81.05
19795;BME280;10057;59.402;17.866;2022-09-27T11:11:25;100056.44;;;13.82;81.19
19795;BME280;10057;59.402;17.866;2022-09-27T11:24:44;100061.56;;;13.85;81.82
19795;BME280;10057;59.402;17.866;2022-09-27T11:30:19;100061.28;;;13.90;81.67
19795;BME280;10057;59.402;17.866;2022-09-27T11:35:43;100066.97;;;13.98;81.93
19795;BME280;10057;59.402;17.866;2022-09-27T11:43:54;100056.16;;;14.15;82.31
19795;BME280;10057;59.402;17.866;2022-09-27T11:46:31;100052.22;;;14.21;82.30
19795;BME280;10057;59.402;17.866;2022-09-27T11:54:15;100066.31;;;14.37;82.22
19795;BME280;10057;59.402;17.866;2022-09-27T12:02:05;100059.31;;;14.49;82.15
19795;BME280;10057;59.402;17.866;2022-09-27T12:04:57;100052.97;;;14.52;82.21
19795;BME280;10057;59.402;17.866;2022-09-27T12:10:20;100058.38;;;14.64;82.26
19795;BME280;10057;59.402;17.866;2022-09-27T12:12:52;100054.47;;;14.70;82.36
19795;BME280;10057;59.402;17.866;2022-09-27T12:15:25;100055.97;;;14.74;82.07
19795;BME280;10057;59.402;17.866;2022-09-27T12:20:39;100054.50;;;14.83;81.72
19795;BME280;10057;59.402;17.866;2022-09-27T12:23:40;100055.25;;;14.85;81.55
19795;BME280;10057;59.402;17.866;2022-09-27T12:26:16;100062.88;;;14.91;81.50
19795;BME280;10057;59.402;17.866;2022-09-27T12:28:48;100056.38;;;14.95;81.31
19795;BME280;10057;59.402;17.866;2022-09-27T12:31:25;100056.25;;;14.97;81.04
19795;BME280;10057;59.402;17.866;2022-09-27T12:34:18;100052.41;;;15.01;80.98
19795;BME280;10057;59.402;17.866;2022-09-27T12:36:57;100059.38;;;15.03;80.76
19795;BME280;10057;59.402;17.866;2022-09-27T12:39:30;100058.44;;;15.04;81.00
19795;BME280;10057;59.402;17.866;2022-09-27T12:42:04;100065.50;;;15.05;80.67
19795;BME280;10057;59.402;17.866;2022-09-27T12:44:42;100062.03;;;15.03;80.62
19795;BME280;10057;59.402;17.866;2022-09-27T12:47:34;100066.53;;;15.03;80.55
19795;BME280;10057;59.402;17.866;2022-09-27T12:50:20;100065.03;;;14.99;80.36
19795;BME280;10057;59.402;17.866;2022-09-27T12:52:54;100064.19;;;14.98;80.38
19795;BME280;10057;59.402;17.866;2022-09-27T12:56:02;100064.19;;;14.98;80.28
19795;BME280;10057;59.402;17.866;2022-09-27T13:01:40;100074.09;;;14.96;80.23
19795;BME280;10057;59.402;17.866;2022-09-27T13:10:18;100075.91;;;14.96;80.23
19795;BME280;10057;59.402;17.866;2022-09-27T13:12:52;100078.59;;;14.96;80.09
19795;BME280;10057;59.402;17.866;2022-09-27T13:15:30;100073.38;;;14.94;80.07
19795;BME280;10057;59.402;17.866;2022-09-27T13:18:02;100069.72;;;14.95;79.99
19795;BME280;10057;59.402;17.866;2022-09-27T13:23:47;100074.66;;;15.01;80.23
19795;BME280;10057;59.402;17.866;2022-09-27T13:25:58;100074.25;;;15.07;79.98
19795;BME280;10057;59.402;17.866;2022-09-27T13:33:40;100074.06;;;15.23;79.88
19795;BME280;10057;59.402;17.866;2022-09-27T13:47:33;100070.88;;;15.31;79.38
19795;BME280;10057;59.402;17.866;2022-09-27T13:50:23;100069.19;;;15.30;79.21
19795;BME280;10057;59.402;17.866;2022-09-27T13:52:58;100075.19;;;15.33;79.40
19795;BME280;10057;59.402;17.866;2022-09-27T13:55:40;100072.19;;;15.38;79.35
19795;BME280;10057;59.402;17.866;2022-09-27T14:03:49;100082.28;;;15.60;78.83
19795;BME280;10057;59.402;17.866;2022-09-27T14:06:21;100069.66;;;15.62;78.56
19795;BME280;10057;59.402;17.866;2022-09-27T14:08:58;100067.09;;;15.60;78.44
19795;BME280;10057;59.402;17.866;2022-09-27T14:11:31;100084.84;;;15.61;78.17
19795;BME280;10057;59.402;17.866;2022-09-27T14:13:59;100086.56;;;15.62;77.88
19795;BME280;10057;59.402;17.866;2022-09-27T14:16:32;100079.50;;;15.61;78.13
19795;BME280;10057;59.402;17.866;2022-09-27T14:19:00;100089.25;;;15.62;77.79
19795;BME280;10057;59.402;17.866;2022-09-27T14:21:31;100091.91;;;15.62;77.53
19795;BME280;10057;59.402;17.866;2022-09-27T14:26:49;100092.78;;;15.63;77.46
19795;BME280;10057;59.402;17.866;2022-09-27T14:29:21;100095.53;;;15.61;77.36
19795;BME280;10057;59.402;17.866;2022-09-27T14:32:09;100088.28;;;15.63;77.47
19795;BME280;10057;59.402;17.866;2022-09-27T14:34:37;100098.97;;;15.63;77.38
19795;BME280;10057;59.402;17.866;2022-09-27T14:37:04;100096.31;;;15.63;77.30
19795;BME280;10057;59.402;17.866;2022-09-27T14:39:54;100086.66;;;15.61;77.13
19795;BME280;10057;59.402;17.866;2022-09-27T14:42:23;100094.03;;;15.57;77.17
19795;BME280;10057;59.402;17.866;2022-09-27T14:44:52;100092.63;;;15.52;76.82
19795;BME280;10057;59.402;17.866;2022-09-27T14:47:23;100094.66;;;15.48;76.92
19795;BME280;10057;59.402;17.866;2022-09-27T14:50:06;100105.78;;;15.42;76.90
19795;BME280;10057;59.402;17.866;2022-09-27T14:52:38;100096.34;;;15.36;76.96
19795;BME280;10057;59.402;17.866;2022-09-27T14:55:09;100097.59;;;15.31;76.91
19795;BME280;10057;59.402;17.866;2022-09-27T14:57:45;100093.56;;;15.25;77.03
19795;BME280;10057;59.402;17.866;2022-09-27T15:00:19;100101.78;;;15.22;77.05
19795;BME280;10057;59.402;17.866;2022-09-27T15:02:48;100103.78;;;15.19;76.87
19795;BME280;10057;59.402;17.866;2022-09-27T15:05:18;100112.97;;;15.14;77.09
19795;BME280;10057;59.402;17.866;2022-09-27T15:07:46;100111.34;;;15.12;76.95
19795;BME280;10057;59.402;17.866;2022-09-27T15:10:18;100108.03;;;15.08;76.77
19795;BME280;10057;59.402;17.866;2022-09-27T15:12:48;100114.41;;;15.06;76.90
19795;BME280;10057;59.402;17.866;2022-09-27T15:15:19;100118.13;;;15.03;76.95
19795;BME280;10057;59.402;17.866;2022-09-27T15:17:47;100122.75;;;15.01;76.72
19795;BME280;10057;59.402;17.866;2022-09-27T15:20:31;100114.94;;;14.98;76.75
19795;BME280;10057;59.402;17.866;2022-09-27T15:23:02;100116.09;;;14.94;76.88
19795;BME280;10057;59.402;17.866;2022-09-27T15:25:37;100123.34;;;14.92;76.73
19795;BME280;10057;59.402;17.866;2022-09-27T15:30:39;100126.50;;;14.84;76.80
19795;BME280;10057;59.402;17.866;2022-09-27T15:33:20;100134.59;;;14.83;76.74
19795;BME280;10057;59.402;17.866;2022-09-27T15:35:49;100123.25;;;14.79;77.06
19795;BME280;10057;59.402;17.866;2022-09-27T15:43:28;100138.81;;;14.73;77.13
19795;BME280;10057;59.402;17.866;2022-09-27T15:46:46;100131.00;;;14.69;77.10
19795;BME280;10057;59.402;17.866;2022-09-27T15:51:46;100128.75;;;14.63;77.35
19795;BME280;10057;59.402;17.866;2022-09-27T15:54:17;100136.84;;;14.62;77.17